Latest Coastal Weather Observations for Cerberus

IDV60701

Issued at 6:01 am EDT Saturday 28 March 2015 (issued every 10 minutes, with the page automatically refreshed every 10 minutes)

About coastal observations | Map of coastal stations | Coastal observations for VIC | Marine services | Other Formats
Station Details ID: 086361 Name: CERBERUS Lat: -38.36 Lon: 145.18 Height: 12.69 m
Data from the previous 72 hours. | See also: Recent months at Cerberus
Date/Time
EDT
Temp

°C
Wind Pressure Rain
since 9am
mm
Weather Cloud Vis
km
Sea
Height
m
Swell
Dir
 
Speed
knots
Gust
knots
hPa Trend Height
m
Period
s
Dir
28/06:00am 12.5 SW 3 4 1024.0 - 0.8 - - - - - - -
28/05:30am 12.1 WSW 3 5 1023.9 - 0.8 - - - - - - -
28/05:00am 11.9 W 3 4 1023.8 - 0.8 - - - - - - -
28/04:30am 11.2 W 3 5 1023.7 - 0.8 - - - - - - -
28/04:00am 11.5 W 4 5 1023.7 - 0.8 - - - - - - -
28/03:30am 11.8 W 3 5 1023.7 - 0.8 - - - - - - -
28/03:00am 12.2 W 4 5 1023.9 - 0.8 - - - - - - -
28/02:30am 12.9 W 4 6 1023.9 - 0.8 - - - - - - -
28/02:00am 13.2 W 5 6 1024.0 - 0.8 - - - - - - -
28/01:30am 13.2 WSW 3 5 1024.0 - 0.8 - - - - - - -
28/01:00am 13.7 WSW 4 6 1024.1 - 0.8 - - - - - - -
28/12:30am 14.1 WSW 7 10 1024.0 - 0.8 - - - - - - -
28/12:00am 13.4 W 3 6 1024.1 - 0.8 Recent precip. - - - - - -
 
Date/Time
EDT
Temp

°C
Wind Pressure Rain
since 9am
mm
Weather Cloud Vis
km
Sea
Height
m
Swell
Dir
 
Speed
knots
Gust
knots
hPa Trend Height
m
Period
s
Dir
27/11:30pm 13.3 WNW 4 8 1024.4 - 0.8 - - - - - - -
27/11:00pm 13.3 SW 8 12 1024.5 - 0.6 - - - - - - -
27/10:30pm 13.4 W 5 8 1024.4 - 0.6 - - - - - - -
27/10:00pm 13.4 WNW 5 7 1024.3 - 0.6 - - - - - - -
27/09:30pm 14.0 W 7 14 1024.4 - 0.6 - - - - - - -
27/09:00pm 13.9 WSW 6 10 1024.2 - 0.6 - - - - - - -
27/08:30pm 13.7 W 5 6 1023.9 - 0.6 - - - - - - -
27/08:00pm 13.9 WSW 5 8 1023.7 - 0.6 - - - - - - -
27/07:30pm 14.2 WSW 10 16 1023.4 - 0.6 - - - - - - -
27/07:00pm 13.9 W 5 7 1023.2 - 0.6 - - - - - - -
27/06:30pm 13.7 SW 10 18 1023.0 - 0.6 - - - - - - -
27/06:00pm 15.4 WSW 9 16 1022.8 - 0.6 - - - - - - -
27/05:30pm 15.4 WSW 11 19 1022.5 - 0.6 - - - - - - -
27/05:00pm 15.3 WSW 10 17 1022.4 - 0.6 - - - - - - -
27/04:30pm 15.3 WSW 14 20 1022.3 - 0.6 - - - - - - -
27/04:00pm 15.7 WSW 14 22 1022.1 - 0.6 - - - - - - -
27/03:30pm 15.9 WSW 13 19 1022.2 - 0.6 - - - - - - -
27/03:00pm 15.7 WSW 13 19 1022.4 - 0.6 Recent precip. - - - - - -
27/02:30pm 14.0 WSW 13 24 1022.6 - 0.6 - - - - - - -
27/02:00pm 15.2 WSW 12 18 1022.5 - 0.4 - - - - - - -
27/01:30pm 14.7 WSW 13 18 1022.7 - 0.4 - - - - - - -
27/01:00pm 15.0 WSW 10 17 1022.9 - 0.4 - - - - - - -
27/12:30pm 14.7 WSW 15 27 1022.7 - 0.4 - - - - - - -
27/12:29pm 14.7 WSW 15 27 1022.7 - 0.4 - - - - - - -
27/12:00pm 14.9 WSW 15 23 1022.6 - 0.4 - - - - - - -
27/11:30am 14.3 WSW 13 21 1022.5 - 0.4 - - - - - - -
27/11:00am 13.6 WSW 13 19 1022.4 - 0.4 - - - - - - -
27/10:30am 13.8 WSW 11 18 1021.9 - 0.4 - - - - - - -
27/10:00am 13.3 W 11 15 1021.7 - 0.0 - - - - - - -
27/09:30am 13.2 WSW 13 25 1021.1 - 0.0 - - - - - - -
27/09:00am 13.4 WSW 12 18 1020.7 - 15.2 Recent precip. - - - - - -
27/08:30am 13.1 W 10 16 1020.3 - 15.0 - - - - - - -
27/08:00am 12.7 W 11 17 1019.9 - 15.0 - - - - - - -
27/07:30am 13.1 WSW 12 20 1019.7 - 14.8 - - - - - - -
27/07:00am 12.7 W 10 17 1019.0 - 14.8 - - - - - - -
27/06:30am 12.9 W 8 16 1018.7 - 14.4 - - - - - - -
27/06:00am 12.4 W 10 16 1018.4 - 14.4 Rain - - - - - -
27/05:30am 12.4 W 12 19 1018.3 - 13.4 - - - - - - -
27/05:00am 13.1 W 9 16 1017.9 - 12.8 - - - - - - -
27/04:30am 12.4 W 8 14 1017.8 - 12.4 - - - - - - -
27/04:00am 13.2 W 9 14 1017.6 - 11.8 - - - - - - -
27/03:30am 13.0 W 10 17 1017.6 - 11.8 - - - - - - -
27/03:00am 12.7 W 8 14 1017.5 - 11.8 Recent precip. - - - - - -
27/02:30am 12.7 W 9 14 1017.4 - 11.8 - - - - - - -
27/02:00am 12.5 W 9 14 1017.2 - 11.6 - - - - - - -
27/01:30am 12.6 WNW 12 20 1016.9 - 10.2 - - - - - - -
27/01:00am 12.5 WNW 9 14 1016.6 - 9.6 - - - - - - -
27/12:30am 12.9 WNW 12 17 1016.7 - 9.0 - - - - - - -
27/12:00am 12.7 WNW 10 16 1017.0 - 8.8 Rain - - - - - -
 
Date/Time
EDT
Temp

°C
Wind Pressure Rain
since 9am
mm
Weather Cloud Vis
km
Sea
Height
m
Swell
Dir
 
Speed
knots
Gust
knots
hPa Trend Height
m
Period
s
Dir
26/11:30pm 12.6 WNW 11 19 1016.8 - 8.0 - - - - - - -
26/11:00pm 12.6 WNW 10 15 1016.7 - 7.4 - - - - - - -
26/10:30pm 12.6 WNW 10 16 1016.4 - 6.8 - - - - - - -
26/10:00pm 12.8 WNW 12 21 1016.2 - 4.4 - - - - - - -
26/09:30pm 13.4 WNW 12 23 1015.8 - 3.2 - - - - - - -
26/09:00pm 13.4 WNW 15 26 1015.6 - 3.2 - - - - - - -
26/08:34pm 13.5 NW 15 27 1015.1 - 3.2 - - - - - - -
26/08:30pm 13.4 NW 15 24 1015.0 - 3.2 - - - - - - -
26/08:00pm 13.2 WNW 15 25 1014.8 - 3.2 - - - - - - -
26/07:38pm 13.4 NW 16 27 1014.4 - 3.0 - - - - - - -
26/07:30pm 13.5 WNW 16 25 1014.4 - 3.0 - - - - - - -
26/07:00pm 13.6 NW 17 32 1014.1 - 3.0 - - - - - - -
26/06:30pm 13.1 NW 17 28 1014.0 - 3.0 - - - - - - -
26/06:02pm 13.1 NW 15 30 1013.9 - 2.8 - - - - - - -
26/06:00pm 13.1 NW 13 29 1014.0 - 2.8 Rain - - - - - -
26/05:30pm 11.7 NNW 10 20 1014.0 - 2.2 - - - - - - -
26/05:04pm 11.4 NW 15 25 1015.0 - 1.6 - - - - - - -
26/05:00pm 11.6 NW 16 25 1015.0 - 1.2 - - - - - - -
26/04:30pm 13.7 NW 19 34 1014.5 - 0.0 - - - - - - -
26/04:00pm 16.0 NW 15 27 1014.4 - 0.0 - - - - - - -
26/03:52pm 15.4 NW 15 30 1014.3 - 0.0 - - - - - - -
26/03:30pm 15.8 NW 17 25 1014.6 - 0.0 - - - - - - -
26/03:00pm 17.9 NW 17 27 1014.9 - 0.0 - - - - - - -
26/02:30pm 18.4 NW 16 29 1015.4 - 0.0 - - - - - - -
26/02:09pm 17.0 NW 15 25 1015.6 - 0.0 - - - - - - -
26/02:00pm 16.1 NW 15 23 1015.9 - 0.0 - - - - - - -
26/01:30pm 17.4 WNW 14 24 1016.0 - 0.0 - - - - - - -
26/01:00pm 16.1 NW 15 23 1016.3 - 0.0 - - - - - - -
26/12:45pm 15.8 NW 15 27 1016.6 - 0.0 - - - - - - -
26/12:30pm 15.6 NW 14 21 1016.8 - 0.0 - - - - - - -
26/12:00pm 15.0 NW 15 23 1017.0 - 0.0 - - - - - - -
26/11:30am 14.1 WNW 11 21 1017.2 - 0.0 - - - - - - -
26/11:00am 14.5 WNW 11 17 1017.1 - 0.0 - - - - - - -
26/10:30am 13.7 WNW 14 23 1016.9 - 0.0 - - - - - - -
26/10:00am 13.9 WNW 9 18 1016.8 - 0.0 - - - - - - -
26/09:30am 12.6 WNW 11 21 1016.8 - 0.0 - - - - - - -
26/09:00am 12.0 WNW 12 18 1016.6 - 0.6 - - - - - - -
26/08:30am 11.7 WNW 10 17 1016.4 - 0.6 - - - - - - -
26/08:00am 11.1 NW 11 18 1016.1 - 0.6 - - - - - - -
26/07:30am 10.8 WNW 11 15 1015.9 - 0.6 - - - - - - -
26/07:00am 10.8 WNW 10 18 1015.4 - 0.6 - - - - - - -
26/06:30am 10.8 NW 6 11 1015.2 - 0.6 - - - - - - -
26/06:00am 10.8 NW 7 11 1015.0 - 0.6 - - - - - - -
26/05:30am 10.4 NW 5 7 1014.9 - 0.6 - - - - - - -
26/05:00am 9.9 NW 5 7 1014.7 - 0.6 - - - - - - -
26/04:30am 9.8 N 3 6 1014.7 - 0.6 - - - - - - -
26/04:00am 10.7 WNW 9 15 1014.6 - 0.0 - - - - - - -
26/03:30am 12.1 NW 6 11 1014.4 - 0.0 - - - - - - -
26/03:00am 12.3 WNW 8 12 1014.5 - 0.0 - - - - - - -
26/02:30am 12.6 W 7 12 1014.7 - 0.0 - - - - - - -
26/02:00am 12.7 W 12 19 1014.8 - 0.0 - - - - - - -
26/01:30am 12.7 W 10 16 1014.3 - 0.0 - - - - - - -
26/01:04am 13.2 NNW 9 21 1013.7 - 0.0 - - - - - - -
26/01:00am 11.3 N 5 10 1013.6 - 0.0 - - - - - - -
26/12:30am 10.2 N 3 4 1013.4 - 0.0 - - - - - - -
26/12:00am 9.2 N 2 4 1013.7 - 0.0 - - - - - - -
 
Date/Time
EDT
Temp

°C
Wind Pressure Rain
since 9am
mm
Weather Cloud Vis
km
Sea
Height
m
Swell
Dir
 
Speed
knots
Gust
knots
hPa Trend Height
m
Period
s
Dir
25/11:30pm 10.0 N 1 2 1013.8 - 0.0 - - - - - - -
25/11:00pm 11.7 N 3 4 1013.8 - 0.0 - - - - - - -
25/10:30pm 11.3 NNW 4 5 1014.1 - 0.0 - - - - - - -
25/10:00pm 11.5 SSE 2 3 1014.1 - 0.0 - - - - - - -
25/09:30pm 12.2 CALM 0 0 1014.0 - 0.0 - - - - - - -
25/09:00pm 12.7 SSE 1 1 1013.9 - 0.0 - - - - - - -
25/08:30pm 14.0 SSE 2 4 1013.7 - 0.0 - - - - - - -
25/08:00pm 14.7 SSE 3 3 1013.6 - 0.0 - - - - - - -
25/07:30pm 15.4 SE 3 5 1013.5 - 0.0 - - - - - - -
25/07:00pm 16.0 SSE 3 5 1013.4 - 0.0 - - - - - - -
25/06:30pm 17.2 SSW 3 5 1013.2 - 0.0 - - - - - - -
25/06:00pm 17.6 S 4 7 1013.1 - 0.0 - - - - - - -
25/05:30pm 17.8 SSE 3 5 1013.2 - 0.0 - - - - - - -
25/05:00pm 17.4 SSE 5 8 1013.3 - 0.0 - - - - - - -
25/04:30pm 16.4 SSW 8 12 1013.6 - 0.0 - - - - - - -
25/04:00pm 17.2 SSW 10 14 1014.1 - 0.0 - - - - - - -
25/03:30pm 18.8 N 4 7 1014.2 - 0.0 - - - - - - -
25/03:00pm 19.6 ENE 4 12 1014.1 - 0.0 - - - - - - -
25/02:30pm 18.2 NE 4 6 1014.9 - 0.0 - - - - - - -
25/02:00pm 18.1 NE 4 6 1015.2 - 0.0 - - - - - - -
25/01:30pm 17.1 NNE 4 9 1015.9 - 0.0 - - - - - - -
25/01:00pm 17.5 NE 6 11 1016.6 - 0.0 - - - - - - -
25/12:30pm 16.8 NE 5 9 1017.1 - 0.0 - - - - - - -
25/12:00pm 16.2 NE 5 8 1017.3 - 0.0 - - - - - - -
25/11:30am 17.1 NE 4 7 1017.5 - 0.0 - - - - - - -
25/11:00am 16.0 NE 3 5 1018.0 - 0.0 - - - - - - -
25/10:30am 16.0 NNW 3 4 1018.5 - 0.0 - - - - - - -
25/10:00am 15.2 N 2 3 1018.3 - 0.0 - - - - - - -
25/09:30am 14.3 N 2 4 1018.1 - 0.0 - - - - - - -
25/09:00am 13.7 N 2 3 1018.5 - 0.2 - - - - - - -
25/08:30am 13.0 NNE 2 3 1018.3 - 0.2 - - - - - - -
25/08:00am 12.5 W 2 3 1018.3 - 0.2 - - - - - - -
25/07:30am 12.3 CALM 0 2 1018.1 - 0.2 - - - - - - -
25/07:00am 12.5 CALM 0 0 1017.9 - 0.2 - - - - - - -
25/06:30am 12.9 W 2 3 1018.0 - 0.2 - - - - - - -

Other Formats:

Comma delimited format used in spreadsheet applications
http://www.bom.gov.au/fwo/IDV60701/IDV60701.94898.axf

JavaScript Object Notation format (JSON) in row-major order
http://www.bom.gov.au/fwo/IDV60701/IDV60701.94898.json